Time;durP1;ratioP1;P1;durP2;ratioP2;P2;SDS_P1;SDS_P2;PMS_P1;PMS_P2;Temp;Humidity;BMP_temperature;BMP_pressure;BME280_temperature;BME280_humidity;BME280_pressure;Samples;Min_cycle;Max_cycle;Signal;HPM_P1;HPM_P2
2022/05/29 00:01:18;;;;;;;4.22;1.90;;;15.60;99.90;;;;;;4958854;28;20037;-91
2022/05/29 00:03:44;;;;;;;3.05;1.90;;;15.70;99.90;;;;;;4954146;28;20030;-91
2022/05/29 00:06:12;;;;;;;4.78;1.90;;;15.80;99.90;;;;;;4972388;28;20031;-91
2022/05/29 00:08:40;;;;;;;3.47;1.95;;;15.60;99.90;;;;;;4976658;28;20117;-91
2022/05/29 00:11:08;;;;;;;3.92;1.85;;;15.60;99.90;;;;;;4977377;28;20045;-92
2022/05/29 00:13:34;;;;;;;2.55;1.52;;;15.70;99.90;;;;;;4984419;28;20022;-90
2022/05/29 00:15:59;;;;;;;4.25;1.40;;;15.60;99.90;;;;;;4985137;28;20088;-91
2022/05/29 00:18:25;;;;;;;2.42;1.40;;;15.60;99.90;;;;;;4971003;28;20053;-90
2022/05/29 00:20:54;;;;;;;3.00;1.48;;;15.50;99.90;;;;;;4970696;28;20030;-90
2022/05/29 00:23:21;;;;;;;2.65;1.63;;;15.40;99.90;;;;;;4973391;28;20034;-90
2022/05/29 00:25:49;;;;;;;3.72;1.65;;;15.40;99.90;;;;;;4978467;28;20058;-91
2022/05/29 00:28:16;;;;;;;3.17;1.48;;;15.40;99.90;;;;;;4980967;28;20506;-91
2022/05/29 00:30:41;;;;;;;4.20;1.20;;;15.40;99.90;;;;;;4985710;28;20046;-91
2022/05/29 00:33:08;;;;;;;2.88;1.38;;;15.40;99.90;;;;;;4954161;28;20121;-91
2022/05/29 00:35:34;;;;;;;3.70;1.20;;;15.30;99.90;;;;;;4989763;28;20042;-90
2022/05/29 00:38:00;;;;;;;5.38;1.20;;;15.50;99.90;;;;;;4975408;28;20039;-91
2022/05/29 00:40:40;;;;;;;3.47;1.17;;;15.20;99.90;;;;;;4974492;28;20027;-91
2022/05/29 00:43:06;;;;;;;3.05;1.10;;;15.10;99.90;;;;;;4976481;28;20126;-90
2022/05/29 00:45:39;;;;;;;4.10;1.20;;;15.10;99.90;;;;;;4955346;28;20542;-91
2022/05/29 00:48:06;;;;;;;4.20;1.40;;;15.10;99.90;;;;;;4955654;28;20028;-91
2022/05/29 00:50:31;;;;;;;3.92;1.30;;;15.10;99.90;;;;;;4960950;28;20066;-90
2022/05/29 00:52:58;;;;;;;3.97;1.20;;;15.00;99.90;;;;;;4975044;28;20054;-91
2022/05/29 00:55:28;;;;;;;4.00;1.58;;;15.00;99.90;;;;;;4977400;28;20034;-91
2022/05/29 00:58:00;;;;;;;3.88;1.60;;;15.10;99.90;;;;;;4971613;28;20041;-91
2022/05/29 01:00:28;;;;;;;1.60;1.02;;;15.40;99.90;;;;;;4976185;28;20028;-90
2022/05/29 01:02:56;;;;;;;2.80;1.10;;;15.00;99.90;;;;;;4959813;28;20035;-90
2022/05/29 01:05:24;;;;;;;3.97;1.17;;;14.90;99.90;;;;;;4991925;28;20030;-91
2022/05/29 01:08:13;;;;;;;2.50;1.25;;;14.90;99.90;;;;;;4980669;28;20035;-90
2022/05/29 01:11:10;;;;;;;3.58;1.27;;;14.90;99.90;;;;;;4960950;28;20407;-91
2022/05/29 01:13:35;;;;;;;2.85;1.00;;;14.80;99.90;;;;;;4981428;28;20054;-90
2022/05/29 01:16:12;;;;;;;4.10;1.45;;;14.70;99.90;;;;;;4981521;28;20514;-90
2022/05/29 01:19:03;;;;;;;3.10;1.10;;;14.70;99.90;;;;;;4969754;28;20449;-90
2022/05/29 01:21:44;;;;;;;3.47;1.15;;;14.70;99.90;;;;;;4975104;28;20027;-90
2022/05/29 01:24:25;;;;;;;1.83;1.10;;;14.60;99.90;;;;;;4961928;28;20035;-91
2022/05/29 01:27:18;;;;;;;2.80;1.10;;;14.60;99.90;;;;;;4973651;28;20053;-91
2022/05/29 01:30:14;;;;;;;4.40;1.05;;;14.50;99.90;;;;;;4989871;28;20031;-90
2022/05/29 01:33:05;;;;;;;4.05;1.20;;;14.50;99.90;;;;;;4961945;28;20030;-91
2022/05/29 01:35:30;;;;;;;2.70;1.20;;;14.60;99.90;;;;;;4981857;28;20031;-90
2022/05/29 01:38:11;;;;;;;2.35;1.33;;;14.30;99.90;;;;;;4979068;28;20034;-91
2022/05/29 01:40:40;;;;;;;4.57;1.20;;;14.30;99.90;;;;;;4959956;28;20114;-90
2022/05/29 01:43:19;;;;;;;3.30;1.20;;;14.20;99.90;;;;;;4963482;28;20035;-90
2022/05/29 01:46:00;;;;;;;4.50;1.60;;;14.10;99.90;;;;;;4961122;28;20491;-91
2022/05/29 01:48:49;;;;;;;2.53;1.20;;;14.10;99.90;;;;;;4976256;28;20026;-90
2022/05/29 01:51:22;;;;;;;4.22;1.88;;;14.20;99.90;;;;;;4961875;28;20046;-90
2022/05/29 01:54:03;;;;;;;4.88;1.50;;;13.80;99.90;;;;;;4976953;28;20058;-91
2022/05/29 01:56:34;;;;;;;3.35;1.27;;;13.90;99.90;;;;;;4974940;28;20054;-90
2022/05/29 01:59:32;;;;;;;2.92;1.50;;;14.10;99.90;;;;;;4986657;28;20038;-90
2022/05/29 02:02:05;;;;;;;4.18;1.38;;;13.90;99.90;;;;;;4989504;28;20022;-90
2022/05/29 02:04:34;;;;;;;1.65;1.20;;;14.00;99.90;;;;;;4967021;28;20086;-90
2022/05/29 02:10:14;;;;;;;4.15;1.20;;;14.00;99.90;;;;;;4984006;28;20573;-90
2022/05/29 02:12:45;;;;;;;3.30;1.38;;;13.90;99.90;;;;;;4961851;28;20060;-90
2022/05/29 02:15:15;;;;;;;4.50;1.63;;;13.90;99.90;;;;;;4989687;28;20403;-91
2022/05/29 02:17:46;;;;;;;3.15;1.10;;;13.90;99.90;;;;;;4960443;28;20039;-91
2022/05/29 02:20:27;;;;;;;5.03;1.85;;;14.10;99.90;;;;;;4980567;28;20085;-91
2022/05/29 02:22:59;;;;;;;4.93;1.38;;;13.80;99.90;;;;;;4960445;28;20041;-90
2022/05/29 02:25:27;;;;;;;2.90;1.60;;;13.80;99.90;;;;;;4964601;28;20372;-90
2022/05/29 02:28:00;;;;;;;5.32;1.45;;;13.80;99.90;;;;;;4971102;28;20034;-90
2022/05/29 02:30:36;;;;;;;3.30;1.50;;;13.70;99.90;;;;;;4974902;28;20038;-90
2022/05/29 02:33:16;;;;;;;3.13;1.40;;;13.70;99.90;;;;;;4958103;28;20027;-91
2022/05/29 02:35:42;;;;;;;2.90;1.58;;;13.50;99.90;;;;;;4971761;28;20121;-90
2022/05/29 02:38:31;;;;;;;6.72;1.75;;;13.50;99.90;;;;;;4976967;28;20062;-90
2022/05/29 02:41:06;;;;;;;5.60;1.40;;;13.60;99.90;;;;;;4977364;28;20387;-90
2022/05/29 02:43:42;;;;;;;4.22;1.33;;;13.50;99.90;;;;;;4976853;28;20094;-90
2022/05/29 02:46:32;;;;;;;5.28;1.40;;;13.50;99.90;;;;;;4978390;28;20040;-91
2022/05/29 02:49:16;;;;;;;6.00;1.42;;;13.50;99.90;;;;;;4981422;28;20031;-90
2022/05/29 02:51:50;;;;;;;4.45;1.42;;;13.40;99.90;;;;;;4988215;28;20036;-90
2022/05/29 02:54:25;;;;;;;3.17;1.60;;;13.50;99.90;;;;;;4961241;28;20075;-90
2022/05/29 02:56:56;;;;;;;3.63;1.73;;;13.80;99.90;;;;;;4957889;28;20023;-90
2022/05/29 02:59:29;;;;;;;3.17;1.65;;;13.50;99.90;;;;;;4979161;28;20042;-91
2022/05/29 03:02:20;;;;;;;3.53;1.60;;;13.50;99.90;;;;;;4977876;28;20041;-90
2022/05/29 03:05:09;;;;;;;6.53;1.80;;;13.80;99.90;;;;;;4959622;28;20031;-91
2022/05/29 03:07:54;;;;;;;6.43;1.73;;;13.40;99.90;;;;;;4960677;28;20027;-91
2022/05/29 03:10:32;;;;;;;2.85;1.45;;;13.30;99.90;;;;;;4967982;28;20031;-91
2022/05/29 03:13:11;;;;;;;6.13;1.63;;;13.30;99.90;;;;;;4976348;28;20027;-91
2022/05/29 03:15:58;;;;;;;6.15;1.80;;;13.20;99.90;;;;;;4977805;28;20037;-91
2022/05/29 03:18:46;;;;;;;3.63;1.60;;;13.30;99.90;;;;;;4957182;28;20104;-91
2022/05/29 03:21:12;;;;;;;6.28;1.98;;;13.20;99.90;;;;;;4960621;28;20396;-91
2022/05/29 03:24:01;;;;;;;5.63;1.63;;;13.10;99.90;;;;;;4976077;28;20111;-91
2022/05/29 03:26:37;;;;;;;5.55;1.48;;;13.10;99.90;;;;;;4961534;28;20081;-91
2022/05/29 03:29:39;;;;;;;5.70;1.50;;;13.10;99.90;;;;;;4976897;28;20098;-91
2022/05/29 03:32:06;;;;;;;3.90;1.40;;;13.20;99.90;;;;;;4978418;28;20058;-91
2022/05/29 03:34:32;;;;;;;5.53;1.40;;;13.20;99.90;;;;;;4977977;28;20606;-91
2022/05/29 03:36:58;;;;;;;5.75;1.55;;;13.00;99.90;;;;;;4959288;28;20027;-91
2022/05/29 03:39:24;;;;;;;3.05;1.50;;;13.00;99.90;;;;;;4974279;28;20041;-91
2022/05/29 03:41:52;;;;;;;3.80;1.70;;;13.10;99.90;;;;;;4958307;28;20023;-91
2022/05/29 03:44:21;;;;;;;2.42;1.48;;;13.00;99.90;;;;;;4977203;28;20030;-91
2022/05/29 03:46:47;;;;;;;4.95;1.75;;;12.90;99.90;;;;;;4975747;28;20062;-90
2022/05/29 03:49:15;;;;;;;5.32;1.60;;;12.90;99.90;;;;;;4975443;28;20039;-91
2022/05/29 03:51:41;;;;;;;3.70;1.42;;;12.80;99.90;;;;;;4955935;28;20035;-90
2022/05/29 03:54:07;;;;;;;6.22;1.55;;;12.80;99.90;;;;;;4986948;28;20066;-91
2022/05/29 03:56:33;;;;;;;2.88;1.50;;;12.80;99.90;;;;;;4960987;28;20043;-91
2022/05/29 03:58:59;;;;;;;3.33;1.33;;;12.70;99.90;;;;;;4975133;28;20488;-91
2022/05/29 04:01:25;;;;;;;6.38;1.73;;;12.90;99.90;;;;;;4957933;28;20055;-91
2022/05/29 04:03:53;;;;;;;4.05;1.77;;;12.80;99.90;;;;;;4959341;28;20606;-91
2022/05/29 04:06:20;;;;;;;6.78;1.92;;;13.10;99.90;;;;;;4972507;28;20030;-91
2022/05/29 04:14:14;;;;;;;4.53;1.52;;;12.70;99.90;;;;;;4977121;28;20447;-91
2022/05/29 04:16:40;;;;;;;3.75;1.70;;;12.50;99.90;;;;;;4958947;28;20051;-91
2022/05/29 04:19:05;;;;;;;5.13;1.75;;;12.30;99.90;;;;;;4960813;28;20034;-91
2022/05/29 04:21:32;;;;;;;5.30;1.92;;;12.70;99.90;;;;;;4955435;28;20027;-91
2022/05/29 04:23:58;;;;;;;4.63;1.60;;;12.50;99.90;;;;;;4970605;28;20027;-90
2022/05/29 04:26:24;;;;;;;4.45;1.67;;;12.60;99.90;;;;;;4977430;28;20023;-91
2022/05/29 04:28:50;;;;;;;6.53;2.05;;;12.50;99.90;;;;;;4960606;28;20049;-91
2022/05/29 04:31:16;;;;;;;3.30;1.90;;;12.70;99.90;;;;;;4975345;28;20115;-90
2022/05/29 04:33:41;;;;;;;4.95;1.65;;;12.60;99.90;;;;;;4959297;28;20121;-90
2022/05/29 04:36:07;;;;;;;2.83;1.63;;;12.80;99.90;;;;;;4972695;28;20030;-90
2022/05/29 04:38:33;;;;;;;6.93;2.08;;;12.60;99.90;;;;;;4976983;28;20109;-91
2022/05/29 04:41:03;;;;;;;4.30;1.80;;;12.70;99.90;;;;;;4971029;28;20031;-90
2022/05/29 04:43:29;;;;;;;3.45;1.70;;;12.60;99.90;;;;;;4976037;28;20511;-90
2022/05/29 04:45:55;;;;;;;7.45;1.92;;;12.60;99.90;;;;;;4959005;28;20027;-91
2022/05/29 04:48:21;;;;;;;6.07;1.90;;;12.70;99.90;;;;;;4973125;28;20043;-91
2022/05/29 04:50:47;;;;;;;5.47;1.63;;;12.70;99.90;;;;;;4974497;28;20031;-91
2022/05/29 04:53:13;;;;;;;5.82;1.70;;;12.90;99.90;;;;;;4972160;28;20038;-91
2022/05/29 04:55:39;;;;;;;5.60;1.92;;;12.90;99.90;;;;;;4976118;28;20121;-91
2022/05/29 04:58:06;;;;;;;5.78;1.73;;;12.80;99.90;;;;;;4970956;28;20018;-91
2022/05/29 05:00:32;;;;;;;4.05;1.60;;;12.90;99.90;;;;;;4971282;28;20122;-91
2022/05/29 05:02:58;;;;;;;5.50;1.70;;;12.80;99.90;;;;;;4971727;28;20079;-90
2022/05/29 05:05:25;;;;;;;3.08;2.00;;;12.50;99.90;;;;;;4969924;28;20031;-91
2022/05/29 05:07:50;;;;;;;2.45;1.63;;;12.30;99.90;;;;;;4975926;28;20027;-90
2022/05/29 05:10:17;;;;;;;5.03;1.88;;;12.50;99.90;;;;;;4974764;28;20114;-91
2022/05/29 05:12:43;;;;;;;3.50;1.92;;;12.50;99.90;;;;;;4976165;28;20054;-90
2022/05/29 05:15:12;;;;;;;3.83;1.83;;;12.50;99.90;;;;;;4955240;28;20043;-91
2022/05/29 05:17:37;;;;;;;4.50;1.80;;;12.70;99.90;;;;;;4966347;28;20050;-91
2022/05/29 05:20:04;;;;;;;3.50;1.77;;;12.70;99.90;;;;;;4970362;28;20035;-91
2022/05/29 05:22:30;;;;;;;6.60;2.28;;;12.60;99.90;;;;;;4969941;28;20083;-90
2022/05/29 05:24:55;;;;;;;6.40;1.90;;;12.60;99.90;;;;;;4970657;28;20134;-90
2022/05/29 05:27:21;;;;;;;6.18;1.92;;;12.80;99.90;;;;;;4955970;28;20027;-91
2022/05/29 05:29:47;;;;;;;4.75;1.95;;;12.90;99.90;;;;;;4973955;28;20035;-90
2022/05/29 05:32:13;;;;;;;4.75;1.90;;;13.30;99.90;;;;;;4962962;28;20030;-91
2022/05/29 05:34:40;;;;;;;4.72;1.63;;;12.70;99.90;;;;;;4975469;28;20035;-90
2022/05/29 05:37:06;;;;;;;7.07;2.17;;;12.90;99.90;;;;;;4974318;28;20039;-90
2022/05/29 05:39:32;;;;;;;4.18;1.90;;;13.10;99.90;;;;;;4955540;28;20049;-91
2022/05/29 05:41:58;;;;;;;4.53;1.70;;;13.00;99.90;;;;;;4960864;28;20122;-91
2022/05/29 05:44:23;;;;;;;4.15;1.90;;;13.40;99.90;;;;;;4995821;28;20046;-93
2022/05/29 05:46:53;;;;;;;5.38;2.00;;;12.90;99.90;;;;;;4965711;28;20042;-93
2022/05/29 05:49:21;;;;;;;4.55;1.58;;;12.90;99.90;;;;;;4978612;28;20395;-90
2022/05/29 05:51:47;;;;;;;4.68;1.73;;;12.80;99.90;;;;;;4964750;28;20118;-89
2022/05/29 05:54:14;;;;;;;6.80;2.30;;;12.80;99.90;;;;;;4988175;28;20515;-89
2022/05/29 05:56:47;;;;;;;5.10;1.80;;;12.80;99.90;;;;;;4990893;28;20034;-89
2022/05/29 05:59:14;;;;;;;3.83;2.08;;;13.20;99.90;;;;;;4989433;28;20026;-90
2022/05/29 06:01:40;;;;;;;6.65;2.00;;;12.70;99.90;;;;;;4966052;28;20039;-90
2022/05/29 06:04:06;;;;;;;4.90;1.70;;;12.90;99.90;;;;;;4979067;28;20566;-92
2022/05/29 06:06:32;;;;;;;4.25;2.13;;;12.90;99.90;;;;;;4959481;28;20065;-90
2022/05/29 06:08:58;;;;;;;3.25;1.80;;;13.20;99.90;;;;;;4974397;28;20439;-92
2022/05/29 06:11:26;;;;;;;6.13;1.55;;;13.20;99.90;;;;;;4957915;28;20035;-91
2022/05/29 06:13:52;;;;;;;5.22;2.28;;;13.20;99.90;;;;;;4972303;28;20101;-92
2022/05/29 06:16:18;;;;;;;7.90;2.10;;;13.80;99.90;;;;;;4976096;28;20081;-91
2022/05/29 06:18:43;;;;;;;3.65;1.83;;;13.50;99.90;;;;;;4984978;28;20039;-92
2022/05/29 06:21:10;;;;;;;3.85;1.80;;;13.60;99.90;;;;;;4977148;28;20027;-92
2022/05/29 06:23:38;;;;;;;4.57;1.75;;;13.30;99.90;;;;;;4977017;28;20114;-95
2022/05/29 06:26:06;;;;;;;3.92;1.60;;;13.50;99.90;;;;;;4958796;28;20034;-95
2022/05/29 06:28:32;;;;;;;3.13;1.67;;;13.70;99.90;;;;;;4971081;28;20035;-95
2022/05/29 06:30:58;;;;;;;4.20;1.83;;;13.80;99.90;;;;;;4979558;28;20399;-94
2022/05/29 06:33:26;;;;;;;7.65;1.88;;;13.70;99.90;;;;;;4993546;28;20113;-95
2022/05/29 06:35:54;;;;;;;6.63;1.88;;;13.60;99.90;;;;;;4972411;28;20031;-93
2022/05/29 06:38:20;;;;;;;16.20;4.63;;;13.70;99.90;;;;;;4979314;28;20041;-92
2022/05/29 06:40:49;;;;;;;3.83;1.90;;;13.80;99.90;;;;;;4983921;28;20467;-93
2022/05/29 06:43:16;;;;;;;6.68;2.13;;;13.70;99.90;;;;;;4970324;28;20081;-93
2022/05/29 06:45:41;;;;;;;4.60;1.70;;;13.90;99.90;;;;;;4985054;28;20031;-93
2022/05/29 06:48:07;;;;;;;7.60;1.98;;;14.00;99.90;;;;;;4988360;28;20038;-93
2022/05/29 06:50:33;;;;;;;4.93;1.98;;;14.00;99.90;;;;;;4971100;28;20099;-93
2022/05/29 06:52:58;;;;;;;5.07;1.83;;;14.10;99.90;;;;;;4962510;28;20081;-93
2022/05/29 06:55:25;;;;;;;2.42;1.52;;;14.10;99.90;;;;;;4978008;28;20042;-92
2022/05/29 06:57:52;;;;;;;2.22;1.50;;;14.40;99.90;;;;;;4975688;28;20027;-92
2022/05/29 07:08:43;;;;;;;3.05;1.50;;;14.20;99.90;;;;;;4957192;28;20038;-94
2022/05/29 07:11:15;;;;;;;3.40;1.58;;;14.20;99.90;;;;;;4971411;28;20051;-92
2022/05/29 07:13:41;;;;;;;4.95;1.70;;;14.00;99.90;;;;;;4971215;28;20046;-92
2022/05/29 07:16:07;;;;;;;3.10;1.60;;;14.20;99.90;;;;;;4963198;28;20031;-92
2022/05/29 07:18:33;;;;;;;4.47;1.80;;;14.10;99.90;;;;;;4955170;29;20067;-93
2022/05/29 07:21:03;;;;;;;3.53;1.80;;;14.30;99.90;;;;;;4971472;28;20031;-92
2022/05/29 07:23:30;;;;;;;3.95;1.77;;;14.30;99.90;;;;;;4974415;28;20019;-92
2022/05/29 07:25:56;;;;;;;4.90;1.55;;;14.40;99.90;;;;;;4988167;28;20117;-92
2022/05/29 07:28:23;;;;;;;4.20;1.67;;;14.60;99.90;;;;;;4965206;28;20030;-91
2022/05/29 07:30:49;;;;;;;5.90;1.90;;;14.70;99.90;;;;;;4970618;28;20038;-91
2022/05/29 07:33:16;;;;;;;3.33;1.50;;;14.80;99.90;;;;;;4975154;28;20030;-92
2022/05/29 07:35:41;;;;;;;3.78;2.00;;;15.30;99.90;;;;;;4960591;28;20027;-92
2022/05/29 07:38:08;;;;;;;3.47;1.60;;;15.10;99.90;;;;;;4970593;28;20041;-94
2022/05/29 07:40:33;;;;;;;3.75;1.75;;;15.00;99.90;;;;;;4961955;28;20042;-94
2022/05/29 07:45:49;;;;;;;4.32;1.83;;;15.10;99.90;;;;;;4976104;28;20049;-94
2022/05/29 07:48:17;;;;;;;3.20;1.52;;;15.30;99.90;;;;;;4974237;28;20086;-95
2022/05/29 07:50:42;;;;;;;5.22;2.10;;;15.30;99.90;;;;;;4975632;28;20133;-94
2022/05/29 07:53:08;;;;;;;3.58;1.85;;;15.60;99.90;;;;;;4975846;28;20062;-94
2022/05/29 07:55:37;;;;;;;4.60;1.55;;;15.40;99.90;;;;;;4958351;28;20035;-93
2022/05/29 07:58:03;;;;;;;4.38;1.85;;;15.40;99.90;;;;;;4967571;28;20026;-94
2022/05/29 08:00:29;;;;;;;3.63;1.42;;;15.50;99.90;;;;;;4958208;28;20065;-94
2022/05/29 08:02:54;;;;;;;5.95;1.67;;;15.60;99.90;;;;;;4972497;28;20125;-94
2022/05/29 08:05:21;;;;;;;5.78;2.15;;;15.60;99.90;;;;;;4977650;28;20042;-94
2022/05/29 08:07:48;;;;;;;5.30;1.90;;;15.40;99.90;;;;;;4958045;28;20499;-93
2022/05/29 08:10:15;;;;;;;4.28;1.90;;;15.40;99.90;;;;;;4972168;28;20045;-94
2022/05/29 08:12:42;;;;;;;3.53;1.45;;;15.60;99.90;;;;;;4986598;28;20053;-94
2022/05/29 08:15:09;;;;;;;2.90;1.70;;;15.60;99.90;;;;;;4973489;28;20031;-93
2022/05/29 08:17:37;;;;;;;3.45;1.63;;;15.70;99.90;;;;;;4960434;28;20127;-94
2022/05/29 08:20:03;;;;;;;5.10;1.90;;;15.90;99.90;;;;;;4986776;28;20054;-91
2022/05/29 08:22:29;;;;;;;2.80;1.73;;;15.90;99.90;;;;;;4974893;28;20122;-93
2022/05/29 08:30:43;;;;;;;2.92;1.55;;;16.00;99.90;;;;;;4975532;28;20053;-93
2022/05/29 08:33:16;;;;;;;4.28;1.70;;;16.00;99.90;;;;;;4942182;28;20085;-93
2022/05/29 08:35:45;;;;;;;4.88;1.42;;;16.20;99.90;;;;;;4991600;28;20081;-93
2022/05/29 08:38:11;;;;;;;4.45;2.08;;;16.40;99.90;;;;;;4976117;28;20480;-93
2022/05/29 08:40:51;;;;;;;3.25;1.42;;;16.50;99.90;;;;;;4976480;28;20034;-93
2022/05/29 08:43:25;;;;;;;4.22;1.45;;;16.40;99.90;;;;;;4964748;28;20089;-93
2022/05/29 08:45:51;;;;;;;4.72;1.88;;;16.40;99.90;;;;;;4972581;28;20062;-93
2022/05/29 08:48:23;;;;;;;3.38;1.70;;;16.40;99.90;;;;;;4976546;28;20086;-93
2022/05/29 08:51:07;;;;;;;3.13;1.60;;;16.50;99.90;;;;;;4974154;28;20081;-94
2022/05/29 08:53:49;;;;;;;2.97;1.48;;;16.90;99.90;;;;;;4982665;28;20034;-94
2022/05/29 08:56:27;;;;;;;3.72;1.38;;;17.00;99.90;;;;;;4976571;28;20483;-93
2022/05/29 08:59:08;;;;;;;4.53;1.75;;;17.10;99.90;;;;;;4975037;28;20066;-93
2022/05/29 09:01:41;;;;;;;3.83;1.60;;;17.10;99.90;;;;;;4973799;28;20035;-91
2022/05/29 09:04:17;;;;;;;4.15;1.70;;;17.00;99.90;;;;;;4976446;28;20031;-93
2022/05/29 09:06:49;;;;;;;4.80;1.85;;;16.90;99.90;;;;;;4959730;28;20039;-94
2022/05/29 09:10:02;;;;;;;5.00;1.63;;;17.00;99.90;;;;;;4972192;28;20106;-95
2022/05/29 09:12:34;;;;;;;3.08;1.42;;;17.50;99.90;;;;;;4954228;28;20217;-95
2022/05/29 09:15:06;;;;;;;4.85;1.55;;;17.90;99.90;;;;;;4974997;28;20521;-95
2022/05/29 09:17:41;;;;;;;5.63;1.40;;;17.90;99.90;;;;;;4978593;28;20542;-95
2022/05/29 09:20:27;;;;;;;3.25;1.50;;;18.00;99.90;;;;;;5002862;28;20451;-94
2022/05/29 09:22:59;;;;;;;6.15;1.58;;;18.00;99.90;;;;;;4961743;28;20039;-94
2022/05/29 09:26:11;;;;;;;3.20;1.70;;;18.10;99.90;;;;;;4980028;28;20042;-96
2022/05/29 09:28:45;;;;;;;2.83;1.42;;;18.10;99.90;;;;;;4987074;28;20031;-96
2022/05/29 09:31:21;;;;;;;2.60;1.50;;;18.40;99.90;;;;;;4992222;28;20047;-96
2022/05/29 09:33:47;;;;;;;7.22;1.90;;;18.30;99.90;;;;;;4963373;28;20038;-96
2022/05/29 09:36:44;;;;;;;3.42;1.67;;;18.20;99.90;;;;;;4977603;28;20022;-94
2022/05/29 09:39:32;;;;;;;3.78;1.60;;;18.40;99.90;;;;;;4962699;28;20035;-96
2022/05/29 09:42:06;;;;;;;2.97;1.60;;;18.50;99.90;;;;;;4965803;29;20042;-96
2022/05/29 09:44:32;;;;;;;2.78;1.65;;;18.50;99.90;;;;;;4961957;29;20058;-96
2022/05/29 09:50:34;;;;;;;5.03;1.60;;;18.60;99.90;;;;;;4982337;28;20038;-96
2022/05/29 09:53:00;;;;;;;4.60;1.40;;;18.60;99.90;;;;;;5008084;28;20018;-96
2022/05/29 09:55:36;;;;;;;3.38;1.63;;;18.70;99.90;;;;;;4986194;28;20023;-96
2022/05/29 09:58:09;;;;;;;3.42;1.45;;;18.80;99.90;;;;;;5000957;28;20031;-96
2022/05/29 10:00:51;;;;;;;4.05;1.60;;;19.00;99.90;;;;;;5001018;28;20031;-96
2022/05/29 10:03:43;;;;;;;3.47;1.40;;;19.10;99.90;;;;;;5001297;28;20496;-96
2022/05/29 10:06:17;;;;;;;3.83;1.40;;;19.50;99.90;;;;;;4981079;28;20035;-94
2022/05/29 10:09:12;;;;;;;3.95;1.50;;;19.50;99.90;;;;;;4982388;28;20087;-96
2022/05/29 10:11:39;;;;;;;2.58;1.20;;;19.50;99.90;;;;;;4989800;28;20031;-95
2022/05/29 10:14:40;;;;;;;6.47;1.65;;;19.50;99.90;;;;;;4970292;28;20503;-96
2022/05/29 10:17:29;;;;;;;4.65;1.80;;;19.40;99.90;;;;;;4965885;28;20078;-96
2022/05/29 10:19:55;;;;;;;4.15;1.60;;;19.60;99.90;;;;;;4978211;28;20034;-96
2022/05/29 10:22:31;;;;;;;4.28;1.63;;;19.70;99.90;;;;;;4961727;28;20065;-96
2022/05/29 10:24:57;;;;;;;3.78;1.48;;;19.70;99.90;;;;;;4978872;28;20031;-96
2022/05/29 10:27:36;;;;;;;4.00;1.45;;;19.90;99.90;;;;;;4960000;28;20027;-96
2022/05/29 10:30:08;;;;;;;3.95;1.70;;;19.80;99.90;;;;;;4957561;28;20491;-95
2022/05/29 10:32:37;;;;;;;4.53;1.70;;;19.80;99.90;;;;;;4972747;28;20097;-95
2022/05/29 10:35:35;;;;;;;2.97;1.50;;;20.10;99.90;;;;;;4961994;28;20033;-91
2022/05/29 10:38:13;;;;;;;2.40;1.40;;;19.90;99.90;;;;;;4977205;28;20487;-95
2022/05/29 10:40:42;;;;;;;5.20;1.55;;;20.10;99.90;;;;;;4964483;28;20038;-96
2022/05/29 10:43:08;;;;;;;3.65;1.52;;;20.30;99.90;;;;;;4978405;28;20510;-95
2022/05/29 10:45:43;;;;;;;2.85;1.40;;;20.40;99.90;;;;;;4964344;28;20073;-96
2022/05/29 10:48:17;;;;;;;4.93;1.48;;;20.40;99.90;;;;;;4974775;28;20019;-96
2022/05/29 10:51:03;;;;;;;4.13;2.70;;;20.40;99.90;;;;;;4962175;28;20045;-96
2022/05/29 10:54:30;;;;;;;3.22;2.10;;;20.40;99.90;;;;;;4995433;28;20032;-96
2022/05/29 10:57:20;;;;;;;4.85;2.40;;;20.40;99.90;;;;;;4919763;29;20065;-96
2022/05/29 10:59:57;;;;;;;3.67;1.80;;;20.50;99.90;;;;;;4903970;29;20052;-96
2022/05/29 11:06:00;;;;;;;3.67;2.28;;;20.50;99.90;;;;;;4899459;29;20121;-96
2022/05/29 11:09:02;;;;;;;5.18;2.55;;;20.70;99.90;;;;;;4902972;29;20017;-96
2022/05/29 11:11:57;;;;;;;3.35;1.83;;;20.90;99.90;;;;;;4919780;29;20032;-96
2022/05/29 11:14:59;;;;;;;3.28;2.05;;;20.90;99.90;;;;;;4920111;29;20083;-96
2022/05/29 11:17:28;;;;;;;5.10;3.30;;;20.80;99.90;;;;;;4919607;29;20059;-96
2022/05/29 11:20:14;;;;;;;3.90;2.03;;;21.00;99.90;;;;;;4920028;29;20096;-96
2022/05/29 11:22:46;;;;;;;3.78;1.30;;;21.10;99.90;;;;;;4920172;29;20052;-96
2022/05/29 11:25:28;;;;;;;2.40;1.50;;;21.40;99.90;;;;;;4891667;29;20034;-96
2022/05/29 11:28:07;;;;;;;4.05;1.50;;;21.50;99.90;;;;;;4897913;29;20044;-96
2022/05/29 11:31:09;;;;;;;4.72;3.10;;;21.20;99.90;;;;;;4918785;29;20044;-96
2022/05/29 11:33:55;;;;;;;10.88;8.13;;;21.30;99.90;;;;;;4935784;29;20025;-96
2022/05/29 11:36:54;;;;;;;12.32;4.95;;;21.50;99.90;;;;;;4937126;29;20032;-96
2022/05/29 11:39:19;;;;;;;19.00;13.10;;;21.90;99.90;;;;;;4935199;29;20035;-96
2022/05/29 11:41:51;;;;;;;10.60;5.28;;;22.30;99.90;;;;;;4948659;29;20035;-96
2022/05/29 11:44:28;;;;;;;17.80;13.02;;;22.40;99.90;;;;;;4955837;29;20388;-96
2022/05/29 11:53:16;;;;;;;4.45;1.50;;;24.00;99.90;;;;;;4989687;28;20089;-96
2022/05/29 11:55:46;;;;;;;4.72;1.40;;;25.90;99.90;;;;;;4977191;28;20031;-94
2022/05/29 11:58:16;;;;;;;4.63;1.40;;;27.40;99.90;;;;;;4984519;28;20085;-96
2022/05/29 12:00:44;;;;;;;3.72;1.45;;;28.40;99.90;;;;;;4986841;28;20023;-96
2022/05/29 12:03:28;;;;;;;2.33;1.65;;;30.30;99.90;;;;;;4974703;28;20117;-95
2022/05/29 12:06:00;;;;;;;2.90;1.70;;;30.40;99.90;;;;;;4956641;28;20035;-95
2022/05/29 12:08:33;;;;;;;3.92;1.60;;;31.50;99.90;;;;;;4972634;28;20454;-96
2022/05/29 12:11:20;;;;;;;1.75;1.08;;;30.20;99.90;;;;;;4954986;28;20035;-95
2022/05/29 12:14:03;;;;;;;2.03;1.20;;;30.50;99.90;;;;;;4952893;29;20027;-95
2022/05/29 12:16:32;;;;;;;2.78;1.20;;;30.90;99.90;;;;;;4960688;28;20042;-96
2022/05/29 12:19:01;;;;;;;4.18;1.30;;;32.50;99.90;;;;;;4977432;28;20026;-95
2022/05/29 12:21:40;;;;;;;3.85;1.40;;;32.50;99.90;;;;;;4979015;28;20023;-96
2022/05/29 12:24:10;;;;;;;4.75;1.50;;;32.10;99.90;;;;;;4976395;28;20031;-96
2022/05/29 12:27:02;;;;;;;4.35;1.20;;;32.10;99.90;;;;;;4987834;28;20035;-96
2022/05/29 12:30:02;;;;;;;2.65;1.17;;;30.60;99.90;;;;;;4962183;28;20514;-96
2022/05/29 12:32:30;;;;;;;3.30;1.33;;;31.70;99.90;;;;;;4956917;29;20062;-96
2022/05/29 12:35:28;;;;;;;3.35;1.30;;;30.10;99.90;;;;;;4963894;29;20031;-96
2022/05/29 12:38:15;;;;;;;4.25;1.30;;;30.20;99.90;;;;;;4968512;28;20133;-96
2022/05/29 12:40:59;;;;;;;2.15;1.35;;;30.50;99.90;;;;;;4975789;28;20061;-95
2022/05/29 12:43:56;;;;;;;2.92;1.50;;;31.00;99.90;;;;;;4978023;28;20027;-94
2022/05/29 12:46:41;;;;;;;2.67;1.30;;;30.50;99.90;;;;;;4974793;28;20058;-96
2022/05/29 12:49:44;;;;;;;2.17;1.27;;;29.80;99.90;;;;;;4976970;28;20047;-96
2022/05/29 12:52:24;;;;;;;2.35;1.30;;;29.10;99.90;;;;;;4970613;29;20014;-96
2022/05/29 12:55:24;;;;;;;2.08;1.35;;;28.90;99.90;;;;;;4963068;28;20031;-96
2022/05/29 12:58:02;;;;;;;4.60;1.10;;;29.00;99.90;;;;;;4959323;29;20038;-96
2022/05/29 13:00:38;;;;;;;1.88;1.30;;;28.50;99.90;;;;;;4964762;29;20532;-96
2022/05/29 13:03:35;;;;;;;2.22;1.20;;;29.00;99.90;;;;;;4967229;28;20029;-95
2022/05/29 13:06:23;;;;;;;2.92;1.40;;;29.10;99.90;;;;;;4950775;29;20027;-96
2022/05/29 13:09:08;;;;;;;2.47;1.20;;;29.10;99.90;;;;;;4964987;28;20058;-93
2022/05/29 13:11:37;;;;;;;2.20;1.30;;;28.60;99.90;;;;;;4964039;29;20102;-96
2022/05/29 13:14:06;;;;;;;4.18;1.42;;;28.50;99.90;;;;;;4945874;29;20037;-96
2022/05/29 13:16:35;;;;;;;3.28;1.25;;;28.70;99.90;;;;;;4963859;29;20110;-96
2022/05/29 13:19:14;;;;;;;2.17;1.20;;;28.70;99.90;;;;;;4943715;29;20059;-96
2022/05/29 13:22:09;;;;;;;3.75;1.25;;;28.70;99.90;;;;;;4967954;28;20106;-96
2022/05/29 13:24:45;;;;;;;2.22;1.17;;;28.40;99.90;;;;;;4968477;28;20038;-96
2022/05/29 13:27:14;;;;;;;2.17;1.20;;;29.20;99.90;;;;;;4961786;28;20081;-96
2022/05/29 13:29:52;;;;;;;1.23;0.95;;;29.00;99.90;;;;;;4992344;28;20088;-95
2022/05/29 13:32:51;;;;;;;4.20;1.30;;;28.70;99.90;;;;;;4992616;28;20034;-95
2022/05/29 13:35:17;;;;;;;2.53;1.33;;;28.70;99.90;;;;;;4985011;28;20041;-96
2022/05/29 13:37:49;;;;;;;2.10;1.33;;;28.80;99.90;;;;;;5010485;28;20022;-95
2022/05/29 13:40:41;;;;;;;2.20;1.40;;;28.90;99.90;;;;;;5012052;28;20035;-96
2022/05/29 13:43:18;;;;;;;1.83;1.17;;;29.30;99.90;;;;;;4980573;28;20030;-96
2022/05/29 13:45:54;;;;;;;2.53;1.52;;;29.20;99.90;;;;;;4992507;28;20033;-96
2022/05/29 13:48:29;;;;;;;4.13;1.35;;;28.50;99.90;;;;;;4991076;28;20038;-96
2022/05/29 13:50:57;;;;;;;2.22;1.27;;;28.50;99.90;;;;;;4989907;28;20066;-96
2022/05/29 13:53:49;;;;;;;3.67;1.25;;;29.00;99.90;;;;;;4981832;28;20031;-95
2022/05/29 13:56:18;;;;;;;3.30;1.23;;;28.70;99.90;;;;;;4959376;28;20066;-90
2022/05/29 14:04:49;;;;;;;3.05;1.15;;;28.80;99.90;;;;;;4979838;28;20100;-91